createdAt,value
2023-01-19T00:01:30.862Z,15.20
2023-01-19T00:03:58.647Z,17.10
2023-01-19T00:06:26.610Z,16.03
2023-01-19T00:08:54.389Z,11.77
2023-01-19T00:11:22.077Z,14.13
2023-01-19T00:13:50.936Z,13.00
2023-01-19T00:16:23.126Z,14.83
2023-01-19T00:18:52.496Z,14.10
2023-01-19T00:21:21.732Z,14.07
2023-01-19T00:23:51.208Z,17.67
2023-01-19T00:26:22.087Z,11.03
2023-01-19T00:28:50.817Z,14.87
2023-01-19T00:31:21.574Z,13.07
2023-01-19T00:33:51.456Z,15.13
2023-01-19T00:36:19.627Z,18.07
2023-01-19T00:38:47.321Z,15.87
2023-01-19T00:41:15.100Z,15.00
2023-01-19T00:43:42.814Z,13.33
2023-01-19T00:46:10.725Z,11.90
2023-01-19T00:48:39.832Z,11.33
2023-01-19T00:51:07.545Z,13.53
2023-01-19T00:53:35.243Z,14.07
2023-01-19T00:56:02.877Z,13.60
2023-01-19T00:58:30.610Z,12.43
2023-01-19T01:01:03.573Z,11.17
2023-01-19T01:03:31.604Z,11.37
2023-01-19T01:06:00.661Z,13.90
2023-01-19T01:08:28.384Z,11.90
2023-01-19T01:10:56.316Z,13.40
2023-01-19T01:13:27.286Z,18.40
2023-01-19T01:15:56.724Z,13.57
2023-01-19T01:18:24.748Z,15.30
2023-01-19T01:20:54.504Z,13.20
2023-01-19T01:23:24.352Z,15.00
2023-01-19T01:25:52.087Z,12.97
2023-01-19T01:28:19.777Z,12.57
2023-01-19T01:30:47.533Z,13.83
2023-01-19T01:33:15.396Z,16.10
2023-01-19T01:36:03.195Z,15.27
2023-01-19T01:38:32.246Z,16.63
2023-01-19T01:41:00.135Z,14.10
2023-01-19T01:43:43.924Z,13.80
2023-01-19T01:46:15.384Z,17.30
2023-01-19T01:48:47.591Z,13.20
2023-01-19T01:51:27.661Z,16.10
2023-01-19T01:54:17.735Z,10.97
2023-01-19T01:56:48.327Z,14.57
2023-01-19T01:59:25.839Z,23.37
2023-01-19T02:02:12.944Z,14.57
2023-01-19T02:04:44.111Z,17.03
2023-01-19T02:07:33.627Z,16.00
2023-01-19T02:10:20.257Z,13.13
2023-01-19T02:13:06.098Z,14.53
2023-01-19T02:15:34.152Z,17.40
2023-01-19T02:18:02.020Z,12.50
2023-01-19T02:20:32.705Z,15.90
2023-01-19T02:23:06.497Z,14.63
2023-01-19T02:25:35.779Z,14.50
2023-01-19T02:28:05.079Z,15.37
2023-01-19T02:30:33.890Z,15.77
2023-01-19T02:33:02.095Z,21.27
2023-01-19T02:35:31.792Z,16.33
2023-01-19T02:38:00.323Z,18.03
2023-01-19T02:40:29.129Z,13.40
2023-01-19T02:43:00.911Z,17.43
2023-01-19T02:45:29.062Z,12.63
2023-01-19T02:47:57.123Z,12.20
2023-01-19T02:50:43.790Z,14.70
2023-01-19T02:53:37.671Z,13.27
2023-01-19T02:56:23.335Z,12.60
2023-01-19T02:58:59.455Z,13.87
2023-01-19T03:01:36.834Z,15.13
2023-01-19T03:04:12.616Z,17.40
2023-01-19T03:06:47.421Z,17.90
2023-01-19T03:09:23.150Z,13.73
2023-01-19T03:11:57.177Z,12.73
2023-01-19T03:14:30.519Z,17.07
2023-01-19T03:17:03.552Z,15.80
2023-01-19T03:19:37.340Z,13.63
2023-01-19T03:22:10.257Z,16.67
2023-01-19T03:24:41.854Z,17.67
2023-01-19T03:27:14.877Z,14.23
2023-01-19T03:29:51.895Z,14.27
2023-01-19T03:32:23.440Z,16.07
2023-01-19T03:34:53.849Z,20.10
2023-01-19T03:37:24.138Z,16.53
2023-01-19T03:39:51.945Z,16.90
2023-01-19T03:42:21.358Z,17.50
2023-01-19T03:44:51.307Z,18.73
2023-01-19T03:47:21.104Z,13.27
2023-01-19T03:49:50.729Z,15.93
2023-01-19T03:52:18.549Z,16.70
2023-01-19T03:54:46.309Z,16.80
2023-01-19T03:57:13.999Z,13.63
2023-01-19T03:59:41.807Z,17.93
2023-01-19T04:02:11.007Z,18.17
2023-01-19T04:04:38.735Z,16.87
2023-01-19T04:07:06.951Z,17.20
2023-01-19T04:09:34.624Z,17.53
2023-01-19T04:12:03.674Z,22.00
2023-01-19T04:14:31.478Z,23.83
2023-01-19T04:16:59.174Z,19.57
2023-01-19T04:19:28.222Z,20.43
2023-01-19T04:21:56.900Z,18.67
2023-01-19T04:24:24.681Z,19.20
2023-01-19T04:26:52.833Z,22.43
2023-01-19T04:29:20.538Z,17.03
2023-01-19T04:31:48.231Z,18.20
2023-01-19T04:34:15.991Z,21.97
2023-01-19T04:36:45.384Z,22.03
2023-01-19T04:39:13.055Z,19.90
2023-01-19T04:41:41.896Z,18.57
2023-01-19T04:44:09.918Z,16.83
2023-01-19T04:46:37.562Z,15.43
2023-01-19T04:49:05.279Z,23.13
2023-01-19T04:51:34.362Z,21.67
2023-01-19T04:54:04.018Z,15.90
2023-01-19T04:56:31.742Z,20.40
2023-01-19T04:58:59.482Z,20.60
2023-01-19T05:01:27.592Z,19.63
2023-01-19T05:03:55.358Z,22.83
2023-01-19T05:06:23.089Z,20.97
2023-01-19T05:08:50.810Z,21.60
2023-01-19T05:11:19.943Z,23.23
2023-01-19T05:13:48.188Z,20.73
2023-01-19T05:16:16.534Z,17.17
2023-01-19T05:18:44.371Z,19.70
2023-01-19T05:21:12.082Z,19.50
2023-01-19T05:23:39.786Z,20.53
2023-01-19T05:26:09.491Z,23.90
2023-01-19T05:28:38.924Z,20.20
2023-01-19T05:31:06.836Z,22.23
2023-01-19T05:33:34.719Z,19.37
2023-01-19T05:36:02.531Z,21.80
2023-01-19T05:38:35.296Z,20.23
2023-01-19T05:41:03.696Z,19.27
2023-01-19T05:43:31.419Z,20.10
2023-01-19T05:46:00.595Z,21.90
2023-01-19T05:48:28.230Z,22.03
2023-01-19T05:50:58.918Z,21.30
2023-01-19T05:53:27.143Z,24.20
2023-01-19T05:55:55.188Z,20.87
2023-01-19T05:58:22.830Z,20.33
2023-01-19T06:00:50.585Z,22.70
2023-01-19T06:03:19.686Z,22.03
2023-01-19T06:05:47.444Z,18.57
2023-01-19T06:08:15.272Z,20.10
2023-01-19T06:10:43.092Z,17.83
2023-01-19T06:13:11.226Z,22.43
2023-01-19T06:15:38.933Z,18.80
2023-01-19T06:18:06.847Z,23.33
2023-01-19T06:20:36.718Z,19.13
2023-01-19T06:23:04.787Z,21.87
2023-01-19T06:25:32.447Z,20.63
2023-01-19T06:28:00.224Z,17.90
2023-01-19T06:30:29.073Z,16.10
2023-01-19T06:32:56.870Z,20.70
2023-01-19T06:35:24.657Z,17.93
2023-01-19T06:37:53.822Z,26.37
2023-01-19T06:40:21.539Z,19.33
2023-01-19T06:42:49.793Z,18.33
2023-01-19T06:45:17.532Z,16.73
2023-01-19T06:47:47.954Z,17.87
2023-01-19T06:50:16.061Z,19.40
2023-01-19T06:52:43.787Z,18.77
2023-01-19T06:55:14.542Z,18.67
2023-01-19T06:57:42.186Z,16.73
2023-01-19T07:00:11.768Z,19.40
2023-01-19T07:02:43.417Z,19.93
2023-01-19T07:05:14.290Z,17.50
2023-01-19T07:07:43.204Z,21.83
2023-01-19T07:10:13.055Z,24.03
2023-01-19T07:12:40.894Z,19.27
2023-01-19T07:15:11.692Z,20.83
2023-01-19T07:17:39.425Z,21.57
2023-01-19T07:20:08.783Z,17.93
2023-01-19T07:22:36.524Z,21.97
2023-01-19T07:25:04.744Z,18.13
2023-01-19T07:27:37.196Z,15.20
2023-01-19T07:30:05.565Z,15.67
2023-01-19T07:32:33.347Z,18.43
2023-01-19T07:35:00.996Z,21.30
2023-01-19T07:37:28.850Z,19.83
2023-01-19T07:39:56.561Z,19.50
2023-01-19T07:42:24.355Z,19.90
2023-01-19T07:44:53.567Z,16.40
2023-01-19T07:47:21.376Z,20.23
2023-01-19T07:49:49.120Z,21.23
2023-01-19T07:52:16.800Z,18.90
2023-01-19T07:54:44.531Z,17.50
2023-01-19T07:57:12.255Z,20.00
2023-01-19T07:59:39.992Z,19.10
2023-01-19T08:02:10.490Z,21.53
2023-01-19T08:04:38.256Z,19.03
2023-01-19T08:07:06.037Z,17.73
2023-01-19T08:09:33.707Z,19.50
2023-01-19T08:12:01.619Z,23.47
2023-01-19T08:14:29.286Z,22.57
2023-01-19T08:17:00.362Z,21.83
2023-01-19T08:19:29.464Z,22.80
2023-01-19T08:21:58.842Z,20.73
2023-01-19T08:24:28.650Z,21.20
2023-01-19T08:27:00.309Z,20.07
2023-01-19T08:29:30.695Z,17.00
2023-01-19T08:32:00.077Z,18.03
2023-01-19T08:34:31.499Z,18.13
2023-01-19T08:36:59.967Z,20.93
2023-01-19T08:39:27.841Z,20.93
2023-01-19T08:41:55.894Z,21.97
2023-01-19T08:44:23.776Z,18.07
2023-01-19T08:46:51.460Z,17.20
2023-01-19T08:49:19.232Z,20.30
2023-01-19T08:51:49.115Z,20.10
2023-01-19T08:54:18.537Z,25.70
2023-01-19T08:56:46.494Z,21.03
2023-01-19T08:59:14.371Z,22.23
2023-01-19T09:01:42.377Z,21.60
2023-01-19T09:04:10.213Z,24.10
2023-01-19T09:06:38.132Z,22.87
2023-01-19T09:09:07.226Z,21.53
2023-01-19T09:11:36.325Z,20.13
2023-01-19T09:14:05.663Z,20.70
2023-01-19T09:16:33.343Z,18.67
2023-01-19T09:19:01.284Z,21.37
2023-01-19T09:21:29.390Z,19.43
2023-01-19T09:23:57.772Z,20.03
2023-01-19T09:26:27.111Z,17.50
2023-01-19T09:28:54.846Z,19.63
2023-01-19T09:31:22.707Z,17.30
2023-01-19T09:33:50.513Z,18.73
2023-01-19T09:36:18.299Z,16.67
2023-01-19T09:38:46.116Z,16.97
2023-01-19T09:41:20.160Z,14.53
2023-01-19T09:43:54.104Z,15.67
2023-01-19T09:46:25.728Z,14.57
2023-01-19T09:48:56.519Z,18.70
2023-01-19T09:51:26.628Z,15.00
2023-01-19T09:54:04.147Z,13.87
2023-01-19T09:56:32.843Z,15.80
2023-01-19T09:59:02.526Z,16.87
2023-01-19T10:01:47.585Z,15.80
2023-01-19T10:04:30.589Z,13.87
2023-01-19T10:07:07.719Z,15.70
2023-01-19T10:09:46.541Z,17.10
2023-01-19T10:12:23.365Z,16.33
2023-01-19T10:15:01.723Z,14.63
2023-01-19T10:17:40.472Z,13.30
2023-01-19T10:20:16.036Z,17.90
2023-01-19T10:22:51.578Z,14.53
2023-01-19T10:25:23.680Z,15.47
2023-01-19T10:27:51.467Z,15.43
2023-01-19T10:30:24.442Z,15.40
2023-01-19T10:32:52.886Z,14.40
2023-01-19T10:35:24.595Z,15.33
2023-01-19T10:37:54.059Z,12.47
2023-01-19T10:40:30.901Z,13.13
2023-01-19T10:42:59.669Z,13.33
2023-01-19T10:45:31.620Z,10.30
2023-01-19T10:48:06.503Z,10.23
2023-01-19T10:50:37.163Z,11.87
2023-01-19T10:53:06.756Z,9.10
2023-01-19T10:55:37.966Z,9.97
2023-01-19T10:58:07.583Z,9.37
2023-01-19T11:00:39.322Z,13.80
2023-01-19T11:03:24.192Z,9.50
2023-01-19T11:05:52.518Z,11.33
2023-01-19T11:08:24.634Z,9.87
2023-01-19T11:10:58.936Z,8.87
2023-01-19T11:13:26.657Z,10.57
2023-01-19T11:15:58.501Z,8.93
2023-01-19T11:18:34.866Z,10.13
2023-01-19T11:21:06.418Z,10.13
2023-01-19T11:23:42.170Z,12.73
2023-01-19T11:26:15.795Z,10.20
2023-01-19T11:28:48.499Z,9.47
2023-01-19T11:31:32.204Z,8.70
2023-01-19T11:34:01.267Z,10.67
2023-01-19T11:36:30.886Z,8.37
2023-01-19T11:39:00.667Z,9.03
2023-01-19T11:41:30.559Z,9.73
2023-01-19T11:44:01.263Z,8.00
2023-01-19T11:46:36.216Z,8.07
2023-01-19T11:49:09.101Z,10.30
2023-01-19T11:51:45.013Z,9.70
2023-01-19T11:54:20.915Z,10.33
2023-01-19T11:56:49.556Z,10.17
2023-01-19T11:59:17.373Z,7.83
2023-01-19T12:01:50.561Z,6.93
2023-01-19T12:04:22.758Z,9.93
2023-01-19T12:06:53.880Z,8.57
2023-01-19T12:09:24.646Z,8.43
2023-01-19T12:12:01.675Z,9.30
2023-01-19T12:14:36.233Z,8.23
2023-01-19T12:17:08.579Z,9.63
2023-01-19T12:19:44.171Z,7.63
2023-01-19T12:22:16.545Z,7.60
2023-01-19T12:24:50.035Z,7.07
2023-01-19T12:27:28.139Z,8.90
2023-01-19T12:29:56.358Z,6.73
2023-01-19T12:32:35.041Z,8.43
2023-01-19T12:35:02.888Z,8.43
2023-01-19T12:37:38.114Z,9.23
2023-01-19T12:40:21.223Z,7.23
2023-01-19T12:42:56.881Z,6.60
2023-01-19T12:45:26.882Z,9.43
2023-01-19T12:47:57.576Z,7.57
2023-01-19T12:50:29.640Z,8.57
2023-01-19T12:52:59.754Z,7.77
2023-01-19T12:55:31.090Z,8.37
2023-01-19T12:58:02.672Z,11.27
2023-01-19T13:00:37.416Z,5.73
2023-01-19T13:03:42.067Z,6.03
2023-01-19T13:06:09.816Z,6.40
2023-01-19T13:09:01.343Z,8.30
2023-01-19T13:11:34.094Z,5.73
2023-01-19T13:14:34.516Z,10.20
2023-01-19T13:17:21.684Z,8.70
2023-01-19T13:19:56.049Z,10.03
2023-01-19T13:22:52.806Z,6.70
2023-01-19T13:25:30.933Z,6.20
2023-01-19T13:27:59.194Z,6.53
2023-01-19T13:30:29.797Z,7.87
2023-01-19T13:33:02.604Z,6.50
2023-01-19T13:35:31.894Z,11.53
2023-01-19T13:38:00.843Z,7.30
2023-01-19T13:40:38.229Z,9.50
2023-01-19T13:43:14.979Z,8.87
2023-01-19T13:45:49.867Z,7.97
2023-01-19T13:48:22.415Z,9.67
2023-01-19T13:51:03.975Z,10.00
2023-01-19T13:53:32.535Z,10.40
2023-01-19T13:56:21.844Z,7.90
2023-01-19T13:59:09.790Z,9.17
2023-01-19T14:01:39.713Z,7.77
2023-01-19T14:04:08.043Z,9.57
2023-01-19T14:06:42.937Z,11.30
2023-01-19T14:09:17.870Z,7.77
2023-01-19T14:11:47.527Z,9.23
2023-01-19T14:14:26.644Z,5.43
2023-01-19T14:16:55.805Z,9.13
2023-01-19T14:19:23.670Z,8.10
2023-01-19T14:22:04.495Z,9.27
2023-01-19T14:24:33.293Z,6.83
2023-01-19T14:27:19.901Z,7.40
2023-01-19T14:29:50.566Z,12.70
2023-01-19T14:32:20.630Z,7.97
2023-01-19T14:34:50.237Z,7.83
2023-01-19T14:37:25.290Z,7.23
2023-01-19T14:39:58.775Z,11.20
2023-01-19T14:42:29.870Z,10.20
2023-01-19T14:45:01.810Z,8.53
2023-01-19T14:47:36.741Z,7.97
2023-01-19T14:50:10.776Z,8.47
2023-01-19T14:52:43.223Z,6.43
2023-01-19T14:55:21.786Z,9.13
2023-01-19T14:57:49.853Z,9.33
2023-01-19T15:00:20.121Z,12.60
2023-01-19T15:02:48.340Z,13.40
2023-01-19T15:05:16.705Z,5.80
2023-01-19T15:07:47.722Z,8.43
2023-01-19T15:10:20.679Z,7.17
2023-01-19T15:12:48.894Z,9.50
2023-01-19T15:15:18.541Z,7.47
2023-01-19T15:17:46.758Z,8.40
2023-01-19T15:20:20.253Z,9.83
2023-01-19T15:22:49.975Z,7.30
2023-01-19T15:25:20.363Z,9.07
2023-01-19T15:27:49.437Z,7.17
2023-01-19T15:30:20.766Z,7.83
2023-01-19T15:32:48.677Z,9.07
2023-01-19T15:35:17.964Z,8.77
2023-01-19T15:37:46.190Z,9.43
2023-01-19T15:40:16.523Z,8.60
2023-01-19T15:42:44.282Z,8.83
2023-01-19T15:45:33.728Z,8.10
2023-01-19T15:48:03.850Z,11.90
2023-01-19T15:50:32.074Z,9.63
2023-01-19T15:53:00.478Z,8.07
2023-01-19T15:55:29.841Z,10.33
2023-01-19T15:58:01.475Z,10.87
2023-01-19T16:00:30.426Z,11.53
2023-01-19T16:03:12.783Z,10.30
2023-01-19T16:05:43.874Z,10.97
2023-01-19T16:08:12.508Z,8.07
2023-01-19T16:10:42.368Z,11.27
2023-01-19T16:13:11.559Z,13.23
2023-01-19T16:15:40.249Z,11.90
2023-01-19T16:18:08.051Z,14.33
2023-01-19T16:20:35.811Z,12.47
2023-01-19T16:23:14.426Z,15.00
2023-01-19T16:25:44.913Z,11.00
2023-01-19T16:28:12.989Z,9.97
2023-01-19T16:30:40.779Z,11.70
2023-01-19T16:33:11.556Z,12.47
2023-01-19T16:35:39.442Z,8.60
2023-01-19T16:38:07.096Z,10.70
2023-01-19T16:40:34.768Z,10.77
2023-01-19T16:43:03.999Z,11.07
2023-01-19T16:45:31.623Z,17.30
2023-01-19T16:47:59.361Z,14.90
2023-01-19T16:50:27.181Z,12.40
2023-01-19T16:52:57.426Z,10.73
2023-01-19T16:55:25.131Z,14.50
2023-01-19T16:57:52.932Z,13.03
2023-01-19T17:00:22.546Z,14.60
2023-01-19T17:02:50.343Z,10.83
2023-01-19T17:05:18.322Z,10.83
2023-01-19T17:07:46.126Z,14.20
2023-01-19T17:10:14.061Z,12.57
2023-01-19T17:12:41.852Z,10.50
2023-01-19T17:15:10.521Z,15.00
2023-01-19T17:17:39.575Z,13.57
2023-01-19T17:20:08.461Z,11.67
2023-01-19T17:22:36.234Z,18.77
2023-01-19T17:25:04.268Z,14.77
2023-01-19T17:27:32.184Z,18.40
2023-01-19T17:29:59.833Z,18.37
2023-01-19T17:32:27.525Z,19.90
2023-01-19T17:34:56.704Z,10.97
2023-01-19T17:37:24.404Z,15.30
2023-01-19T17:39:52.184Z,12.83
2023-01-19T17:42:19.942Z,14.97
2023-01-19T17:44:47.709Z,15.13
2023-01-19T17:47:15.447Z,14.77
2023-01-19T17:49:44.927Z,14.70
2023-01-19T17:52:14.686Z,13.90
2023-01-19T17:54:43.723Z,14.60
2023-01-19T17:57:11.472Z,14.10
2023-01-19T17:59:40.982Z,14.17
2023-01-19T18:02:10.478Z,15.23
2023-01-19T18:04:39.118Z,15.27
2023-01-19T18:07:07.195Z,13.53
2023-01-19T18:09:36.391Z,14.37
2023-01-19T18:12:04.190Z,14.73
2023-01-19T18:14:31.985Z,16.17
2023-01-19T18:16:59.760Z,16.23
2023-01-19T18:19:27.939Z,16.00
2023-01-19T18:21:56.637Z,12.87
2023-01-19T18:24:24.394Z,15.43
2023-01-19T18:26:55.671Z,15.37
2023-01-19T18:29:23.646Z,15.77
2023-01-19T18:31:51.406Z,10.50
2023-01-19T18:34:19.164Z,10.67
2023-01-19T18:36:46.904Z,16.00
2023-01-19T18:39:14.595Z,12.60
2023-01-19T18:41:42.943Z,19.87
2023-01-19T18:44:12.881Z,28.13
2023-01-19T18:46:40.675Z,20.77
2023-01-19T18:49:08.975Z,19.77
2023-01-19T18:51:36.925Z,19.33
2023-01-19T18:54:04.775Z,18.90
2023-01-19T18:56:32.502Z,19.00
2023-01-19T18:59:00.314Z,17.60
2023-01-19T19:01:32.962Z,24.50
2023-01-19T19:04:00.899Z,21.60
2023-01-19T19:06:29.162Z,19.40
2023-01-19T19:08:59.212Z,18.53
2023-01-19T19:11:28.457Z,16.50
2023-01-19T19:13:58.453Z,16.00
2023-01-19T19:16:26.338Z,14.80
2023-01-19T19:18:55.841Z,17.47
2023-01-19T19:21:25.316Z,13.60
2023-01-19T19:23:54.816Z,14.87
2023-01-19T19:26:23.060Z,15.90
2023-01-19T19:28:50.958Z,15.73
2023-01-19T19:31:21.138Z,17.60
2023-01-19T19:33:50.785Z,17.80
2023-01-19T19:36:21.616Z,14.97
2023-01-19T19:38:49.541Z,17.93
2023-01-19T19:41:19.803Z,16.73
2023-01-19T19:43:47.847Z,16.03
2023-01-19T19:46:17.747Z,15.10
2023-01-19T19:48:45.699Z,12.37
2023-01-19T19:51:19.211Z,16.50
2023-01-19T19:53:51.401Z,16.10
2023-01-19T19:56:21.932Z,19.13
2023-01-19T19:58:50.459Z,16.30
2023-01-19T20:01:20.404Z,22.30
2023-01-19T20:03:48.421Z,19.23
2023-01-19T20:06:20.661Z,20.57
2023-01-19T20:08:50.302Z,14.63
2023-01-19T20:11:19.866Z,18.90
2023-01-19T20:13:47.726Z,21.20
2023-01-19T20:16:17.783Z,20.07
2023-01-19T20:18:55.247Z,17.50
2023-01-19T20:21:25.370Z,19.00
2023-01-19T20:23:55.606Z,20.53
2023-01-19T20:26:26.408Z,19.57
2023-01-19T20:28:54.505Z,19.83
2023-01-19T20:31:24.447Z,14.90
2023-01-19T20:33:52.954Z,14.80
2023-01-19T20:36:22.097Z,16.53
2023-01-19T20:38:49.835Z,14.97
2023-01-19T20:41:19.541Z,16.90
2023-01-19T20:43:47.372Z,17.90
2023-01-19T20:46:15.276Z,22.30
2023-01-19T20:48:43.079Z,19.60
2023-01-19T20:51:13.049Z,19.53
2023-01-19T20:53:42.243Z,20.60
2023-01-19T20:56:12.874Z,28.33
2023-01-19T20:58:42.450Z,20.33
2023-01-19T21:01:11.751Z,22.20
2023-01-19T21:03:39.865Z,22.70
2023-01-19T21:06:08.124Z,21.07
2023-01-19T21:08:36.422Z,21.97
2023-01-19T21:11:04.873Z,23.63
2023-01-19T21:13:32.955Z,23.13
2023-01-19T21:16:02.832Z,19.03
2023-01-19T21:18:30.524Z,19.47
2023-01-19T21:20:58.565Z,19.03
2023-01-19T21:23:27.332Z,20.30
2023-01-19T21:25:56.871Z,19.93
2023-01-19T21:28:24.937Z,19.20
2023-01-19T21:30:53.906Z,20.20
2023-01-19T21:33:23.811Z,21.33
2023-01-19T21:35:52.345Z,21.17
2023-01-19T21:38:20.800Z,20.77
2023-01-19T21:40:48.522Z,21.03
2023-01-19T21:43:20.017Z,23.27
2023-01-19T21:45:49.386Z,21.47
2023-01-19T21:48:17.387Z,19.27
2023-01-19T21:50:46.524Z,22.60
2023-01-19T21:53:15.637Z,17.50
2023-01-19T21:55:45.651Z,17.77
2023-01-19T21:58:13.365Z,19.50
2023-01-19T22:00:41.183Z,20.50
2023-01-19T22:03:09.132Z,21.57
2023-01-19T22:05:37.530Z,16.43
2023-01-19T22:08:06.985Z,16.77
2023-01-19T22:10:36.757Z,22.03
2023-01-19T22:13:06.603Z,20.53
2023-01-19T22:15:34.477Z,21.80
2023-01-19T22:18:02.240Z,20.00
2023-01-19T22:20:29.941Z,22.50
2023-01-19T22:22:57.822Z,20.70
2023-01-19T22:25:27.903Z,22.57
2023-01-19T22:27:55.981Z,21.87
2023-01-19T22:30:23.776Z,23.00
2023-01-19T22:32:53.184Z,20.57
2023-01-19T22:35:21.319Z,20.13
2023-01-19T22:37:49.121Z,23.97
2023-01-19T22:40:17.293Z,25.07
2023-01-19T22:42:48.110Z,17.53
2023-01-19T22:45:16.180Z,18.17
2023-01-19T22:47:44.004Z,23.37
2023-01-19T22:50:11.899Z,20.97
2023-01-19T22:52:39.527Z,18.50
2023-01-19T22:55:07.720Z,23.43
2023-01-19T22:57:36.575Z,22.13
2023-01-19T23:00:08.888Z,21.67
2023-01-19T23:02:36.773Z,19.67
2023-01-19T23:05:04.947Z,19.23
2023-01-19T23:07:32.689Z,20.17
2023-01-19T23:10:00.420Z,21.93
2023-01-19T23:12:28.146Z,19.30
2023-01-19T23:14:55.872Z,23.97
2023-01-19T23:17:25.020Z,18.13
2023-01-19T23:19:52.742Z,19.00
2023-01-19T23:22:20.421Z,20.60
2023-01-19T23:24:49.093Z,22.43
2023-01-19T23:27:17.866Z,22.20
2023-01-19T23:29:46.452Z,20.80
2023-01-19T23:32:14.524Z,19.67
2023-01-19T23:34:44.142Z,19.13
2023-01-19T23:37:11.803Z,23.03
2023-01-19T23:39:39.907Z,23.43
2023-01-19T23:42:08.844Z,19.80
2023-01-19T23:44:36.778Z,18.93
2023-01-19T23:47:04.557Z,18.13
2023-01-19T23:49:32.217Z,21.63
2023-01-19T23:52:01.482Z,22.40
2023-01-19T23:54:29.211Z,18.67
2023-01-19T23:56:57.494Z,19.90
2023-01-19T23:59:25.277Z,20.30
